createdAt,value
2023-03-03T00:00:06.449Z,11.37
2023-03-03T00:01:29.585Z,10.40
2023-03-03T00:02:51.643Z,13.00
2023-03-03T00:04:13.789Z,10.80
2023-03-03T00:05:36.361Z,12.17
2023-03-03T00:06:58.432Z,10.30
2023-03-03T00:08:22.646Z,12.00
2023-03-03T00:09:44.690Z,11.37
2023-03-03T00:11:07.844Z,10.30
2023-03-03T00:12:31.486Z,12.90
2023-03-03T00:13:55.609Z,10.57
2023-03-03T00:15:25.585Z,9.70
2023-03-03T00:16:49.164Z,11.00
2023-03-03T00:18:22.894Z,12.90
2023-03-03T00:19:47.382Z,10.67
2023-03-03T00:21:29.115Z,10.73
2023-03-03T00:22:51.339Z,13.87
2023-03-03T00:24:25.597Z,10.03
2023-03-03T00:25:51.585Z,12.70
2023-03-03T00:27:39.568Z,10.00
2023-03-03T00:29:02.033Z,11.53
2023-03-03T00:30:25.851Z,11.27
2023-03-03T00:31:47.865Z,10.60
2023-03-03T00:33:28.511Z,10.57
2023-03-03T00:34:52.540Z,11.00
2023-03-03T00:36:21.414Z,11.27
2023-03-03T00:37:43.936Z,10.10
2023-03-03T00:39:27.410Z,10.10
2023-03-03T00:40:50.149Z,10.53
2023-03-03T00:42:17.399Z,10.10
2023-03-03T00:43:39.427Z,10.73
2023-03-03T00:45:01.579Z,10.30
2023-03-03T00:46:24.328Z,10.13
2023-03-03T00:47:46.400Z,10.43
2023-03-03T00:49:24.887Z,10.93
2023-03-03T00:50:47.500Z,10.20
2023-03-03T00:52:18.656Z,10.83
2023-03-03T00:53:40.683Z,11.67
2023-03-03T00:55:04.321Z,11.10
2023-03-03T00:56:27.765Z,9.93
2023-03-03T00:57:49.780Z,10.17
2023-03-03T00:59:11.826Z,11.90
2023-03-03T01:00:34.689Z,11.80
2023-03-03T01:01:56.782Z,11.83
2023-03-03T01:03:21.990Z,10.10
2023-03-03T01:04:49.791Z,11.20
2023-03-03T01:06:12.803Z,12.53
2023-03-03T01:07:34.901Z,10.83
2023-03-03T01:08:57.361Z,12.20
2023-03-03T01:10:19.517Z,11.03
2023-03-03T01:11:41.812Z,12.50
2023-03-03T01:13:05.667Z,10.10
2023-03-03T01:14:27.844Z,10.90
2023-03-03T01:15:51.016Z,10.57
2023-03-03T01:17:13.154Z,11.10
2023-03-03T01:18:36.278Z,10.37
2023-03-03T01:19:58.345Z,10.77
2023-03-03T01:21:20.368Z,10.20
2023-03-03T01:22:42.603Z,9.97
2023-03-03T01:24:04.838Z,10.53
2023-03-03T01:25:26.954Z,11.53
2023-03-03T01:26:49.002Z,10.13
2023-03-03T01:28:11.342Z,9.73
2023-03-03T01:29:33.498Z,9.90
2023-03-03T01:31:00.100Z,12.73
2023-03-03T01:32:23.318Z,10.47
2023-03-03T01:33:45.417Z,9.80
2023-03-03T01:35:07.969Z,10.50
2023-03-03T01:36:30.452Z,10.30
2023-03-03T01:37:52.610Z,11.43
2023-03-03T01:39:14.670Z,10.57
2023-03-03T01:40:37.067Z,10.27
2023-03-03T01:41:59.106Z,10.60
2023-03-03T01:43:21.304Z,10.00
2023-03-03T01:44:43.963Z,11.00
2023-03-03T01:46:06.260Z,11.03
2023-03-03T01:47:33.659Z,9.57
2023-03-03T01:49:03.673Z,9.83
2023-03-03T01:51:01.789Z,9.57
2023-03-03T01:52:45.297Z,8.97
2023-03-03T01:54:14.658Z,9.90
2023-03-03T01:55:41.300Z,9.97
2023-03-03T01:57:06.611Z,9.40
2023-03-03T01:58:33.363Z,10.97
2023-03-03T01:59:57.410Z,10.13
2023-03-03T02:01:22.960Z,10.23
2023-03-03T02:02:46.402Z,10.93
2023-03-03T02:04:10.017Z,10.57
2023-03-03T02:05:33.617Z,10.30
2023-03-03T02:07:09.950Z,11.27
2023-03-03T02:08:42.631Z,10.00
2023-03-03T02:10:08.004Z,10.63
2023-03-03T02:11:34.628Z,11.60
2023-03-03T02:12:58.518Z,10.73
2023-03-03T02:14:20.636Z,10.37
2023-03-03T02:15:42.713Z,11.70
2023-03-03T02:17:04.814Z,10.83
2023-03-03T02:18:27.726Z,11.10
2023-03-03T02:20:07.454Z,11.50
2023-03-03T02:21:29.574Z,11.60
2023-03-03T02:22:57.286Z,11.03
2023-03-03T02:24:34.898Z,11.10
2023-03-03T02:25:58.824Z,11.40
2023-03-03T02:27:21.390Z,10.80
2023-03-03T02:28:43.683Z,11.93
2023-03-03T02:30:20.393Z,11.10
2023-03-03T02:31:43.147Z,10.60
2023-03-03T02:33:06.170Z,12.17
2023-03-03T02:34:28.388Z,10.30
2023-03-03T02:35:51.297Z,10.77
2023-03-03T02:37:13.404Z,10.90
2023-03-03T02:38:46.567Z,9.40
2023-03-03T02:40:10.710Z,12.00
2023-03-03T02:41:53.421Z,12.60
2023-03-03T02:43:20.009Z,11.00
2023-03-03T02:44:42.252Z,10.93
2023-03-03T02:46:04.545Z,11.63
2023-03-03T02:47:26.636Z,12.50
2023-03-03T02:48:48.795Z,11.40
2023-03-03T02:50:11.187Z,10.50
2023-03-03T02:51:33.448Z,12.37
2023-03-03T02:52:55.499Z,10.97
2023-03-03T02:54:20.213Z,10.53
2023-03-03T02:55:42.238Z,11.47
2023-03-03T02:57:05.335Z,13.23
2023-03-03T02:58:27.411Z,10.23
2023-03-03T02:59:49.418Z,9.60
2023-03-03T03:01:11.823Z,10.53
2023-03-03T03:02:34.138Z,11.50
2023-03-03T03:03:56.231Z,11.70
2023-03-03T03:05:18.338Z,11.77
2023-03-03T03:06:41.108Z,12.33
2023-03-03T03:08:03.179Z,11.80
2023-03-03T03:09:26.263Z,10.33
2023-03-03T03:10:49.202Z,11.83
2023-03-03T03:12:12.219Z,12.80
2023-03-03T03:13:34.762Z,11.63
2023-03-03T03:14:56.825Z,12.10
2023-03-03T03:16:19.406Z,12.67
2023-03-03T03:17:42.208Z,11.40
2023-03-03T03:19:05.075Z,12.57
2023-03-03T03:20:27.172Z,11.27
2023-03-03T03:21:49.264Z,12.60
2023-03-03T03:23:12.152Z,11.17
2023-03-03T03:24:34.233Z,13.07
2023-03-03T03:25:56.360Z,13.20
2023-03-03T03:27:19.280Z,12.73
2023-03-03T03:28:41.627Z,13.20
2023-03-03T03:30:04.062Z,12.63
2023-03-03T03:31:26.163Z,12.30
2023-03-03T03:32:48.427Z,13.47
2023-03-03T03:34:10.556Z,12.77
2023-03-03T03:35:34.558Z,12.87
2023-03-03T03:36:56.632Z,11.83
2023-03-03T03:38:18.791Z,13.33
2023-03-03T03:39:41.022Z,14.40
2023-03-03T03:41:04.255Z,11.80
2023-03-03T03:42:26.279Z,14.50
2023-03-03T03:43:48.310Z,11.40
2023-03-03T03:45:15.164Z,13.47
2023-03-03T03:46:37.231Z,12.37
2023-03-03T03:47:59.582Z,13.07
2023-03-03T03:49:21.626Z,14.33
2023-03-03T03:50:43.670Z,15.20
2023-03-03T03:52:05.701Z,13.27
2023-03-03T03:53:27.767Z,14.90
2023-03-03T03:54:49.828Z,14.17
2023-03-03T03:56:11.862Z,15.00
2023-03-03T03:57:33.938Z,13.90
2023-03-03T03:58:55.932Z,13.83
2023-03-03T04:00:18.261Z,15.50
2023-03-03T04:01:40.315Z,16.10
2023-03-03T04:03:02.445Z,13.77
2023-03-03T04:04:24.506Z,15.67
2023-03-03T04:05:46.577Z,14.83
2023-03-03T04:07:10.751Z,15.17
2023-03-03T04:08:33.681Z,15.87
2023-03-03T04:09:56.059Z,14.50
2023-03-03T04:11:18.129Z,16.73
2023-03-03T04:12:40.253Z,15.70
2023-03-03T04:14:02.298Z,18.83
2023-03-03T04:15:24.516Z,16.10
2023-03-03T04:16:46.521Z,16.20
2023-03-03T04:18:08.854Z,16.90
2023-03-03T04:19:30.898Z,18.30
2023-03-03T04:20:54.623Z,17.37
2023-03-03T04:22:16.702Z,16.00
2023-03-03T04:23:38.780Z,17.67
2023-03-03T04:25:04.967Z,17.40
2023-03-03T04:26:27.068Z,15.60
2023-03-03T04:27:49.108Z,15.87
2023-03-03T04:29:11.264Z,17.53
2023-03-03T04:30:33.344Z,16.33
2023-03-03T04:31:55.490Z,16.13
2023-03-03T04:33:17.566Z,16.60
2023-03-03T04:34:39.668Z,16.63
2023-03-03T04:36:01.871Z,16.77
2023-03-03T04:37:23.885Z,16.10
2023-03-03T04:38:45.929Z,19.03
2023-03-03T04:40:09.299Z,17.10
2023-03-03T04:41:31.390Z,18.37
2023-03-03T04:42:53.430Z,17.00
2023-03-03T04:44:15.518Z,16.17
2023-03-03T04:45:37.979Z,18.50
2023-03-03T04:47:00.016Z,18.20
2023-03-03T04:48:22.048Z,15.77
2023-03-03T04:49:44.067Z,17.13
2023-03-03T04:51:06.240Z,18.27
2023-03-03T04:52:28.665Z,18.90
2023-03-03T04:53:50.844Z,16.60
2023-03-03T04:55:14.126Z,18.27
2023-03-03T04:56:36.189Z,15.73
2023-03-03T04:57:58.187Z,15.43
2023-03-03T04:59:20.210Z,17.50
2023-03-03T05:00:42.331Z,16.20
2023-03-03T05:02:07.366Z,18.23
2023-03-03T05:03:29.402Z,14.83
2023-03-03T05:04:51.526Z,15.57
2023-03-03T05:06:13.724Z,16.23
2023-03-03T05:07:36.105Z,15.80
2023-03-03T05:08:58.154Z,16.53
2023-03-03T05:10:20.795Z,16.73
2023-03-03T05:11:42.892Z,17.27
2023-03-03T05:13:05.224Z,16.77
2023-03-03T05:14:28.160Z,16.90
2023-03-03T05:15:52.040Z,16.40
2023-03-03T05:17:14.389Z,16.00
2023-03-03T05:18:36.788Z,16.53
2023-03-03T05:19:58.864Z,17.03
2023-03-03T05:21:20.925Z,15.93
2023-03-03T05:22:42.982Z,15.33
2023-03-03T05:24:05.125Z,17.10
2023-03-03T05:25:27.431Z,18.60
2023-03-03T05:26:49.721Z,16.90
2023-03-03T05:28:11.759Z,17.00
2023-03-03T05:29:33.857Z,17.73
2023-03-03T05:30:56.040Z,18.90
2023-03-03T05:32:18.527Z,17.20
2023-03-03T05:33:40.580Z,16.93
2023-03-03T05:35:03.288Z,18.23
2023-03-03T05:36:25.554Z,16.97
2023-03-03T05:37:49.652Z,17.63
2023-03-03T05:39:11.794Z,18.43
2023-03-03T05:40:33.879Z,17.20
2023-03-03T05:41:56.122Z,20.53
2023-03-03T05:43:18.197Z,16.83
2023-03-03T05:44:40.512Z,18.47
2023-03-03T05:46:02.559Z,18.27
2023-03-03T05:47:24.832Z,17.33
2023-03-03T05:48:46.889Z,17.10
2023-03-03T05:50:09.968Z,19.30
2023-03-03T05:51:32.033Z,19.33
2023-03-03T05:52:54.131Z,19.40
2023-03-03T05:54:16.240Z,17.97
2023-03-03T05:55:38.279Z,17.23
2023-03-03T05:57:00.382Z,17.93
2023-03-03T05:58:22.468Z,16.40
2023-03-03T05:59:44.511Z,17.80
2023-03-03T06:01:06.596Z,18.40
2023-03-03T06:02:28.612Z,18.20
2023-03-03T06:03:50.619Z,20.40
2023-03-03T06:05:12.728Z,17.97
2023-03-03T06:06:35.341Z,16.50
2023-03-03T06:07:57.391Z,17.90
2023-03-03T06:09:20.442Z,17.77
2023-03-03T06:10:42.524Z,18.73
2023-03-03T06:12:04.894Z,18.70
2023-03-03T06:13:27.165Z,20.30
2023-03-03T06:14:49.245Z,17.90
2023-03-03T06:16:11.360Z,18.80
2023-03-03T06:17:33.441Z,19.80
2023-03-03T06:18:55.476Z,18.03
2023-03-03T06:20:17.580Z,17.03
2023-03-03T06:21:39.799Z,19.60
2023-03-03T06:23:01.935Z,19.53
2023-03-03T06:24:25.313Z,18.80
2023-03-03T06:25:47.617Z,17.53
2023-03-03T06:27:10.466Z,17.87
2023-03-03T06:28:32.487Z,18.00
2023-03-03T06:29:54.541Z,18.03
2023-03-03T06:31:16.561Z,17.70
2023-03-03T06:32:39.029Z,17.80
2023-03-03T06:34:01.119Z,16.90
2023-03-03T06:35:23.226Z,16.00
2023-03-03T06:36:45.922Z,18.10
2023-03-03T06:38:08.074Z,18.73
2023-03-03T06:39:30.179Z,15.17
2023-03-03T06:40:52.239Z,16.03
2023-03-03T06:42:14.261Z,15.63
2023-03-03T06:43:37.011Z,16.57
2023-03-03T06:44:59.085Z,16.80
2023-03-03T06:46:21.215Z,16.20
2023-03-03T06:47:43.328Z,16.60
2023-03-03T06:49:05.436Z,14.97
2023-03-03T06:50:27.639Z,15.73
2023-03-03T06:51:50.642Z,15.40
2023-03-03T06:53:16.255Z,18.60
2023-03-03T06:54:38.359Z,17.60
2023-03-03T06:56:01.874Z,14.77
2023-03-03T06:57:30.618Z,14.80
2023-03-03T06:59:00.669Z,15.13
2023-03-03T07:00:30.723Z,16.60
2023-03-03T07:01:53.659Z,16.00
2023-03-03T07:03:22.613Z,15.30
2023-03-03T07:04:46.950Z,15.30
2023-03-03T07:06:25.402Z,14.07
2023-03-03T07:07:47.575Z,14.60
2023-03-03T07:09:21.805Z,13.63
2023-03-03T07:10:44.630Z,12.97
2023-03-03T07:12:13.673Z,14.60
2023-03-03T07:13:40.564Z,14.40
2023-03-03T07:15:16.093Z,13.10
2023-03-03T07:16:38.344Z,14.23
2023-03-03T07:18:00.598Z,13.93
2023-03-03T07:19:33.128Z,13.30
2023-03-03T07:20:55.458Z,13.50
2023-03-03T07:22:21.051Z,13.70
2023-03-03T07:23:44.778Z,13.70
2023-03-03T07:25:30.975Z,13.77
2023-03-03T07:26:54.626Z,13.43
2023-03-03T07:28:28.951Z,12.23
2023-03-03T07:29:53.822Z,14.70
2023-03-03T07:31:45.765Z,12.43
2023-03-03T07:33:24.970Z,13.13
2023-03-03T07:34:49.342Z,13.77
2023-03-03T07:36:40.982Z,13.20
2023-03-03T07:38:03.124Z,11.90
2023-03-03T07:39:27.686Z,12.13
2023-03-03T07:40:52.831Z,13.00
2023-03-03T07:42:20.788Z,13.97
2023-03-03T07:43:54.434Z,12.60
2023-03-03T07:45:29.396Z,13.17
2023-03-03T07:46:52.630Z,13.37
2023-03-03T07:48:31.353Z,12.57
2023-03-03T07:49:55.891Z,13.03
2023-03-03T07:51:25.224Z,12.20
2023-03-03T07:52:57.304Z,13.50
2023-03-03T07:54:22.412Z,12.23
2023-03-03T07:55:45.725Z,13.73
2023-03-03T07:57:35.038Z,13.03
2023-03-03T07:58:58.261Z,12.63
2023-03-03T08:00:20.260Z,11.90
2023-03-03T08:01:46.277Z,12.07
2023-03-03T08:03:19.436Z,13.33
2023-03-03T08:04:44.406Z,12.00
2023-03-03T08:06:30.462Z,12.43
2023-03-03T08:07:52.483Z,11.50
2023-03-03T08:09:17.464Z,10.60
2023-03-03T08:10:56.643Z,10.97
2023-03-03T08:12:23.180Z,10.07
2023-03-03T08:13:45.879Z,10.87
2023-03-03T08:15:25.469Z,11.67
2023-03-03T08:16:48.254Z,10.83
2023-03-03T08:18:23.288Z,10.70
2023-03-03T08:19:45.343Z,9.93
2023-03-03T08:21:14.539Z,10.00
2023-03-03T08:22:37.165Z,9.83
2023-03-03T08:23:59.234Z,9.87
2023-03-03T08:25:21.418Z,10.20
2023-03-03T08:26:43.931Z,9.43
2023-03-03T08:28:06.219Z,9.37
2023-03-03T08:29:28.372Z,9.70
2023-03-03T08:30:50.794Z,9.50
2023-03-03T08:32:12.956Z,9.33
2023-03-03T08:33:35.192Z,10.10
2023-03-03T08:34:57.207Z,10.40
2023-03-03T08:36:19.406Z,9.60
2023-03-03T08:37:41.417Z,9.23
2023-03-03T08:39:05.345Z,10.73
2023-03-03T08:40:27.476Z,10.30
2023-03-03T08:41:49.533Z,9.70
2023-03-03T08:43:16.979Z,9.67
2023-03-03T08:44:39.549Z,9.33
2023-03-03T08:46:05.212Z,9.83
2023-03-03T08:47:27.333Z,9.10
2023-03-03T08:48:49.802Z,8.43
2023-03-03T08:50:13.612Z,8.07
2023-03-03T08:51:35.907Z,10.43
2023-03-03T08:52:58.287Z,9.33
2023-03-03T08:54:20.337Z,9.20
2023-03-03T08:55:43.004Z,10.80
2023-03-03T08:57:05.055Z,9.97
2023-03-03T08:58:35.074Z,9.43
2023-03-03T08:59:58.245Z,9.20
2023-03-03T09:01:20.366Z,10.00
2023-03-03T09:02:42.667Z,9.73
2023-03-03T09:04:04.936Z,9.87
2023-03-03T09:05:27.862Z,9.80
2023-03-03T09:06:49.940Z,10.10
2023-03-03T09:08:12.055Z,10.13
2023-03-03T09:09:34.065Z,10.13
2023-03-03T09:10:56.113Z,9.60
2023-03-03T09:12:22.922Z,11.87
2023-03-03T09:13:44.935Z,11.13
2023-03-03T09:15:16.203Z,10.80
2023-03-03T09:16:40.919Z,9.90
2023-03-03T09:18:22.627Z,8.93
2023-03-03T09:19:45.340Z,9.90
2023-03-03T09:21:28.748Z,9.00
2023-03-03T09:22:51.349Z,10.13
2023-03-03T09:24:30.769Z,9.87
2023-03-03T09:25:53.425Z,9.47
2023-03-03T09:27:31.770Z,10.17
2023-03-03T09:29:19.664Z,10.50
2023-03-03T09:30:46.611Z,10.30
2023-03-03T09:32:22.604Z,8.63
2023-03-03T09:33:47.122Z,9.70
2023-03-03T09:35:24.002Z,9.90
2023-03-03T09:36:46.225Z,9.60
2023-03-03T09:38:26.414Z,10.40
2023-03-03T09:39:54.313Z,8.87
2023-03-03T09:41:53.510Z,10.17
2023-03-03T09:43:24.576Z,9.13
2023-03-03T09:45:20.208Z,9.53
2023-03-03T09:47:14.089Z,9.23
2023-03-03T09:48:56.461Z,8.73
2023-03-03T09:50:18.453Z,10.00
2023-03-03T09:52:24.176Z,9.63
2023-03-03T09:54:04.774Z,9.90
2023-03-03T09:55:38.859Z,9.83
2023-03-03T09:57:06.518Z,9.43
2023-03-03T09:58:49.678Z,9.63
2023-03-03T10:00:33.026Z,10.27
2023-03-03T10:02:25.926Z,10.57
2023-03-03T10:04:22.823Z,9.93
2023-03-03T10:06:01.648Z,9.30
2023-03-03T10:07:46.238Z,9.47
2023-03-03T10:09:30.301Z,9.53
2023-03-03T10:11:29.290Z,8.83
2023-03-03T10:13:14.345Z,10.57
2023-03-03T10:15:00.181Z,9.30
2023-03-03T10:16:22.236Z,9.43
2023-03-03T10:18:11.863Z,9.90
2023-03-03T10:19:38.547Z,9.47
2023-03-03T10:21:12.031Z,9.03
2023-03-03T10:22:53.577Z,10.07
2023-03-03T10:24:29.971Z,10.60
2023-03-03T10:26:41.939Z,10.13
2023-03-03T10:28:06.934Z,9.97
2023-03-03T10:29:40.729Z,10.17
2023-03-03T10:31:30.589Z,9.80
2023-03-03T10:33:01.546Z,10.23
2023-03-03T10:34:50.179Z,11.17
2023-03-03T10:36:39.746Z,10.40
2023-03-03T10:38:14.588Z,10.77
2023-03-03T10:40:15.208Z,11.50
2023-03-03T10:42:28.119Z,10.40
2023-03-03T10:44:08.053Z,11.50
2023-03-03T10:45:57.987Z,10.90
2023-03-03T10:47:38.492Z,11.50
2023-03-03T10:49:13.498Z,11.47
2023-03-03T10:50:46.933Z,12.60
2023-03-03T10:52:15.114Z,12.10
2023-03-03T10:53:58.009Z,11.70
2023-03-03T10:55:49.959Z,12.43
2023-03-03T10:57:30.404Z,11.10
2023-03-03T10:59:15.055Z,13.40
2023-03-03T11:00:58.397Z,12.17
2023-03-03T11:02:46.462Z,12.47
2023-03-03T11:04:34.027Z,13.10
2023-03-03T11:06:04.917Z,12.20
2023-03-03T11:07:33.756Z,11.70
2023-03-03T11:09:05.029Z,13.47
2023-03-03T11:10:45.312Z,12.20
2023-03-03T11:12:23.303Z,12.03
2023-03-03T11:14:15.757Z,12.70
2023-03-03T11:15:44.341Z,14.67
2023-03-03T11:17:18.657Z,11.97
2023-03-03T11:19:06.891Z,12.52
2023-03-03T11:20:38.701Z,14.00
2023-03-03T11:22:23.927Z,11.33
2023-03-03T11:24:17.553Z,11.47
2023-03-03T11:26:07.626Z,11.07
2023-03-03T11:27:45.883Z,11.77
2023-03-03T11:29:35.610Z,12.33
2023-03-03T11:31:06.880Z,11.00
2023-03-03T11:33:37.549Z,12.40
2023-03-03T11:35:26.675Z,11.23
2023-03-03T11:36:51.623Z,11.10
2023-03-03T11:38:42.508Z,10.67
2023-03-03T11:40:17.032Z,10.43
2023-03-03T11:41:58.167Z,10.47
2023-03-03T11:43:43.754Z,8.83
2023-03-03T11:45:20.439Z,9.47
2023-03-03T11:46:55.712Z,10.80
2023-03-03T11:48:23.096Z,10.63
2023-03-03T11:50:04.806Z,9.57
2023-03-03T11:51:29.996Z,10.47
2023-03-03T11:53:12.943Z,10.00
2023-03-03T11:54:44.573Z,10.93
2023-03-03T11:56:17.945Z,9.80
2023-03-03T11:58:08.328Z,9.13
2023-03-03T12:00:00.278Z,8.97
2023-03-03T12:01:39.227Z,9.00
2023-03-03T12:03:20.116Z,8.50
2023-03-03T12:04:48.588Z,8.67
2023-03-03T12:06:19.326Z,7.93
2023-03-03T12:07:59.877Z,8.00
2023-03-03T12:09:58.737Z,8.70
2023-03-03T12:11:49.429Z,7.60
2023-03-03T12:13:48.093Z,7.63
2023-03-03T12:15:28.734Z,7.30
2023-03-03T12:17:17.893Z,7.23
2023-03-03T12:19:14.972Z,7.50
2023-03-03T12:20:46.159Z,6.77
2023-03-03T12:22:39.221Z,7.83
2023-03-03T12:24:08.013Z,7.83
2023-03-03T12:25:39.070Z,7.80
2023-03-03T12:27:19.648Z,7.60
2023-03-03T12:28:47.403Z,7.03
2023-03-03T12:31:01.146Z,8.60
2023-03-03T12:32:33.448Z,8.20
2023-03-03T12:34:14.900Z,7.87
2023-03-03T12:35:42.040Z,7.13
2023-03-03T12:37:22.232Z,6.63
2023-03-03T12:38:52.374Z,7.60
2023-03-03T12:40:20.260Z,7.40
2023-03-03T12:41:56.159Z,8.37
2023-03-03T12:43:32.938Z,7.20
2023-03-03T12:45:15.644Z,7.40
2023-03-03T12:46:56.337Z,7.67
2023-03-03T12:48:21.463Z,8.10
2023-03-03T12:50:10.871Z,8.23
2023-03-03T12:51:50.793Z,8.10
2023-03-03T12:53:29.869Z,8.00
2023-03-03T12:54:57.580Z,7.13
2023-03-03T12:56:39.825Z,7.17
2023-03-03T12:58:58.934Z,5.77
2023-03-03T13:00:41.248Z,4.20
2023-03-03T13:02:37.040Z,4.47
2023-03-03T13:04:31.637Z,4.07
2023-03-03T13:06:15.821Z,4.20
2023-03-03T13:07:48.551Z,4.43
2023-03-03T13:09:31.094Z,3.83
2023-03-03T13:11:18.154Z,4.20
2023-03-03T13:12:44.593Z,3.13
2023-03-03T13:14:27.115Z,4.70
2023-03-03T13:16:02.997Z,3.83
2023-03-03T13:17:55.705Z,3.67
2023-03-03T13:19:26.272Z,5.67
2023-03-03T13:21:14.419Z,4.47
2023-03-03T13:23:01.241Z,4.70
2023-03-03T13:24:42.709Z,4.20
2023-03-03T13:26:20.121Z,3.40
2023-03-03T13:27:45.441Z,4.10
2023-03-03T13:29:23.132Z,4.33
2023-03-03T13:30:50.004Z,4.00
2023-03-03T13:32:44.658Z,3.40
2023-03-03T13:34:17.955Z,3.10
2023-03-03T13:35:51.661Z,3.40
2023-03-03T13:37:30.747Z,3.03
2023-03-03T13:38:57.500Z,3.70
2023-03-03T13:40:53.838Z,2.60
2023-03-03T13:42:29.262Z,3.47
2023-03-03T13:44:04.266Z,3.20
2023-03-03T13:45:49.828Z,3.00
2023-03-03T13:47:17.726Z,3.13
2023-03-03T13:49:04.069Z,3.00
2023-03-03T13:51:03.518Z,2.80
2023-03-03T13:52:31.548Z,2.87
2023-03-03T13:54:03.187Z,2.60
2023-03-03T13:55:40.107Z,3.20
2023-03-03T13:57:25.953Z,2.40
2023-03-03T13:58:57.016Z,2.60
2023-03-03T14:00:30.884Z,2.53
2023-03-03T14:02:20.931Z,2.60
2023-03-03T14:04:12.662Z,2.73
2023-03-03T14:05:41.066Z,3.63
2023-03-03T14:07:19.776Z,3.10
2023-03-03T14:09:15.368Z,3.23
2023-03-03T14:11:17.712Z,3.20
2023-03-03T14:12:39.762Z,3.23
2023-03-03T14:14:30.621Z,3.20
2023-03-03T14:16:29.085Z,3.80
2023-03-03T14:18:18.712Z,3.67
2023-03-03T14:19:46.652Z,3.97
2023-03-03T14:21:08.748Z,3.53
2023-03-03T14:23:22.532Z,3.53
2023-03-03T14:24:59.650Z,3.77
2023-03-03T14:26:21.917Z,3.70
2023-03-03T14:27:46.942Z,3.97
2023-03-03T14:29:29.755Z,3.00
2023-03-03T14:30:58.342Z,3.97
2023-03-03T14:32:28.439Z,3.90
2023-03-03T14:34:00.533Z,4.07
2023-03-03T14:35:22.638Z,4.40
2023-03-03T14:36:44.811Z,4.00
2023-03-03T14:38:17.694Z,4.83
2023-03-03T14:39:40.685Z,4.60
2023-03-03T14:41:11.121Z,4.30
2023-03-03T14:42:51.579Z,4.40
2023-03-03T14:44:35.429Z,4.10
2023-03-03T14:46:15.154Z,5.20
2023-03-03T14:47:43.257Z,5.23
2023-03-03T14:49:16.384Z,5.97
2023-03-03T14:50:41.046Z,5.90
2023-03-03T14:52:24.769Z,5.60
2023-03-03T14:53:49.965Z,7.10
2023-03-03T14:55:35.901Z,6.57
2023-03-03T14:57:03.489Z,7.20
2023-03-03T14:58:35.041Z,6.80
2023-03-03T14:59:58.236Z,7.93
2023-03-03T15:01:32.247Z,8.30
2023-03-03T15:03:23.375Z,8.43
2023-03-03T15:04:47.450Z,7.80
2023-03-03T15:06:13.069Z,6.33
2023-03-03T15:07:37.758Z,7.50
2023-03-03T15:09:25.472Z,6.57
2023-03-03T15:10:47.594Z,6.50
2023-03-03T15:12:21.455Z,6.80
2023-03-03T15:13:43.607Z,6.80
2023-03-03T15:15:05.633Z,6.53
2023-03-03T15:16:34.389Z,6.73
2023-03-03T15:18:02.639Z,6.80
2023-03-03T15:19:40.324Z,6.40
2023-03-03T15:21:07.620Z,7.67
2023-03-03T15:22:38.426Z,7.10
2023-03-03T15:24:06.707Z,6.50
2023-03-03T15:25:44.927Z,6.40
2023-03-03T15:27:24.174Z,6.43
2023-03-03T15:29:24.928Z,6.63
2023-03-03T15:31:07.729Z,6.40
2023-03-03T15:32:44.566Z,6.63
2023-03-03T15:34:25.261Z,5.70
2023-03-03T15:36:01.768Z,6.50
2023-03-03T15:37:51.926Z,6.13
2023-03-03T15:39:13.979Z,5.23
2023-03-03T15:40:54.060Z,5.27
2023-03-03T15:42:35.529Z,4.90
2023-03-03T15:44:16.019Z,4.40
2023-03-03T15:45:46.670Z,4.30
2023-03-03T15:47:12.999Z,4.60
2023-03-03T15:48:43.992Z,4.53
2023-03-03T15:50:25.455Z,4.17
2023-03-03T15:52:22.616Z,5.07
2023-03-03T15:54:17.535Z,4.07
2023-03-03T15:56:03.780Z,4.40
2023-03-03T15:57:49.531Z,4.77
2023-03-03T15:59:26.376Z,5.50
2023-03-03T16:01:00.199Z,5.60
2023-03-03T16:02:26.563Z,5.57
2023-03-03T16:04:04.283Z,5.93
2023-03-03T16:06:01.024Z,5.70
2023-03-03T16:07:28.951Z,6.77
2023-03-03T16:09:02.793Z,6.10
2023-03-03T16:10:47.203Z,5.67
2023-03-03T16:12:31.121Z,5.97
2023-03-03T16:14:33.288Z,5.90
2023-03-03T16:16:36.500Z,5.37
2023-03-03T16:18:05.530Z,4.77
2023-03-03T16:20:03.491Z,4.40
2023-03-03T16:22:05.139Z,4.57
2023-03-03T16:23:47.365Z,4.20
2023-03-03T16:25:15.976Z,3.70
2023-03-03T16:26:40.719Z,3.43
2023-03-03T16:28:08.685Z,3.60
2023-03-03T16:29:36.200Z,2.83
2023-03-03T16:31:19.125Z,3.50
2023-03-03T16:32:48.395Z,3.23
2023-03-03T16:34:19.115Z,3.70
2023-03-03T16:35:57.697Z,2.90
2023-03-03T16:37:36.096Z,3.30
2023-03-03T16:39:06.308Z,3.27
2023-03-03T16:40:49.682Z,4.30
2023-03-03T16:42:33.629Z,3.60
2023-03-03T16:44:11.263Z,3.10
2023-03-03T16:45:39.211Z,2.90
2023-03-03T16:47:38.279Z,3.60
2023-03-03T16:49:18.701Z,3.37
2023-03-03T16:50:59.110Z,3.80
2023-03-03T16:52:33.155Z,4.10
2023-03-03T16:54:12.115Z,4.70
2023-03-03T16:55:59.115Z,3.73
2023-03-03T16:57:34.453Z,4.63
2023-03-03T16:59:32.146Z,3.70
2023-03-03T17:01:21.496Z,3.97
2023-03-03T17:03:07.874Z,4.20
2023-03-03T17:04:40.968Z,3.73
2023-03-03T17:06:28.419Z,3.63
2023-03-03T17:08:21.845Z,4.50
2023-03-03T17:10:00.830Z,3.87
2023-03-03T17:12:01.484Z,5.00
2023-03-03T17:13:50.746Z,4.20
2023-03-03T17:15:31.284Z,5.27
2023-03-03T17:17:22.190Z,5.37
2023-03-03T17:19:07.139Z,4.73
2023-03-03T17:20:37.310Z,5.20
2023-03-03T17:22:05.323Z,4.37
2023-03-03T17:23:47.819Z,4.93
2023-03-03T17:25:15.704Z,5.20
2023-03-03T17:26:37.659Z,5.50
2023-03-03T17:28:17.743Z,5.17
2023-03-03T17:29:54.179Z,5.83
2023-03-03T17:31:31.230Z,5.93
2023-03-03T17:34:19.141Z,7.10
2023-03-03T17:36:02.955Z,6.80
2023-03-03T17:38:12.615Z,7.70
2023-03-03T17:39:52.606Z,7.17
2023-03-03T17:41:37.962Z,8.03
2023-03-03T17:43:08.207Z,6.80
2023-03-03T17:44:49.381Z,7.40
2023-03-03T17:46:38.250Z,7.07
2023-03-03T17:48:32.378Z,6.37
2023-03-03T17:50:00.234Z,5.77
2023-03-03T17:51:50.200Z,6.97
2023-03-03T17:53:20.926Z,6.70
2023-03-03T17:55:06.463Z,6.50
2023-03-03T17:57:07.378Z,5.50
2023-03-03T17:58:57.015Z,5.27
2023-03-03T18:00:44.043Z,5.17
2023-03-03T18:02:35.761Z,4.93
2023-03-03T18:04:03.912Z,4.27
2023-03-03T18:05:40.088Z,4.60
2023-03-03T18:07:24.116Z,4.60
2023-03-03T18:09:19.493Z,4.53
2023-03-03T18:11:06.129Z,4.20
2023-03-03T18:12:51.753Z,5.10
2023-03-03T18:14:44.628Z,4.67
2023-03-03T18:16:25.668Z,4.80
2023-03-03T18:17:53.653Z,4.60
2023-03-03T18:19:33.635Z,4.90
2023-03-03T18:21:08.146Z,5.20
2023-03-03T18:22:41.042Z,5.20
2023-03-03T18:24:26.950Z,6.13
2023-03-03T18:25:55.774Z,7.17
2023-03-03T18:27:23.932Z,5.70
2023-03-03T18:28:49.375Z,5.80
2023-03-03T18:30:18.554Z,6.47
2023-03-03T18:32:00.081Z,6.97
2023-03-03T18:33:43.531Z,5.63
2023-03-03T18:35:32.947Z,4.90
2023-03-03T18:37:30.138Z,4.93
2023-03-03T18:38:53.567Z,4.73
2023-03-03T18:40:24.975Z,3.97
2023-03-03T18:42:08.181Z,4.07
2023-03-03T18:43:45.501Z,4.10
2023-03-03T18:45:20.497Z,3.90
2023-03-03T18:46:42.521Z,3.30
2023-03-03T18:48:12.569Z,3.63
2023-03-03T18:49:56.233Z,3.67
2023-03-03T18:51:36.892Z,4.23
2023-03-03T18:53:10.918Z,4.00
2023-03-03T18:54:34.526Z,3.30
2023-03-03T18:55:58.720Z,4.43
2023-03-03T18:57:22.980Z,3.70
2023-03-03T18:58:45.136Z,4.67
2023-03-03T19:00:15.649Z,4.13
2023-03-03T19:01:48.075Z,4.07
2023-03-03T19:03:37.886Z,4.47
2023-03-03T19:05:20.567Z,4.00
2023-03-03T19:06:45.689Z,3.97
2023-03-03T19:08:23.268Z,4.27
2023-03-03T19:09:52.426Z,4.90
2023-03-03T19:11:39.692Z,3.73
2023-03-03T19:13:02.132Z,4.17
2023-03-03T19:14:28.862Z,5.80
2023-03-03T19:15:55.822Z,4.60
2023-03-03T19:17:18.173Z,4.50
2023-03-03T19:18:43.383Z,4.80
2023-03-03T19:20:18.508Z,4.60
2023-03-03T19:21:42.987Z,4.47
2023-03-03T19:23:31.891Z,5.40
2023-03-03T19:25:08.977Z,4.87
2023-03-03T19:27:01.571Z,4.70
2023-03-03T19:28:49.471Z,5.73
2023-03-03T19:30:22.615Z,5.63
2023-03-03T19:32:02.959Z,4.95
2023-03-03T19:33:34.828Z,5.03
2023-03-03T19:35:15.378Z,5.93
2023-03-03T19:37:00.734Z,5.00
2023-03-03T19:38:37.513Z,5.30
2023-03-03T19:40:05.346Z,4.60
2023-03-03T19:42:02.533Z,4.60
2023-03-03T19:43:48.877Z,5.40
2023-03-03T19:45:27.274Z,4.57
2023-03-03T19:47:01.490Z,4.03
2023-03-03T19:48:57.128Z,5.03
2023-03-03T19:50:32.780Z,4.77
2023-03-03T19:52:01.435Z,4.90
2023-03-03T19:53:35.252Z,4.60
2023-03-03T19:55:03.052Z,4.30
2023-03-03T19:56:44.580Z,3.40
2023-03-03T19:58:23.090Z,3.90
2023-03-03T20:00:07.787Z,4.03
2023-03-03T20:01:57.038Z,4.00